Time;durP1;ratioP1;P1;durP2;ratioP2;P2;SDS_P1;SDS_P2;PMS_P1;PMS_P2;Temp;Humidity;BMP_temperature;BMP_pressure;BME280_temperature;BME280_humidity;BME280_pressure;Samples;Min_cycle;Max_cycle;Signal;HPM_P1;HPM_P2
2023/04/12 00:00:24;;;;;;;10.50;8.00;;;;;;;;;;764165;181;843284;-58
2023/04/12 00:02:52;;;;;;;13.93;8.50;;;;;;;;;;762226;181;919776;-58
2023/04/12 00:05:16;;;;;;;12.60;8.50;;;;;;;;;;765012;181;919762;-58
2023/04/12 00:07:45;;;;;;;12.07;7.87;;;;;;;;;;766117;181;919855;-58
2023/04/12 00:10:09;;;;;;;16.83;9.20;;;;;;;;;;754134;182;918774;-58
2023/04/12 00:12:34;;;;;;;12.57;9.20;;;;;;;;;;758454;181;919741;-58
2023/04/12 00:15:00;;;;;;;12.00;10.07;;;;;;;;;;756036;186;919582;-58
2023/04/12 00:17:26;;;;;;;14.77;9.50;;;;;;;;;;763700;182;922226;-58
2023/04/12 00:19:51;;;;;;;15.20;10.80;;;;;;;;;;755101;182;920844;-58
2023/04/12 00:22:18;;;;;;;14.85;11.23;;;;;;;;;;754431;182;919413;-59
2023/04/12 00:24:43;;;;;;;17.27;11.40;;;;;;;;;;766537;182;918718;-58
2023/04/12 00:27:09;;;;;;;17.50;10.83;;;;;;;;;;763187;182;921216;-58
2023/04/12 00:29:35;;;;;;;14.37;9.47;;;;;;;;;;759161;182;816084;-58
2023/04/12 00:32:02;;;;;;;17.57;11.70;;;;;;;;;;766139;183;919254;-58
2023/04/12 00:34:27;;;;;;;16.73;11.00;;;;;;;;;;763528;182;919310;-58
2023/04/12 00:36:53;;;;;;;16.40;9.20;;;;;;;;;;760415;182;918974;-58
2023/04/12 00:39:19;;;;;;;14.30;10.47;;;;;;;;;;766678;182;917281;-58
2023/04/12 00:41:45;;;;;;;16.90;10.50;;;;;;;;;;754866;182;920461;-58
2023/04/12 00:44:10;;;;;;;15.40;10.93;;;;;;;;;;758067;183;921984;-58
2023/04/12 00:46:37;;;;;;;17.73;11.23;;;;;;;;;;770262;182;819251;-58
2023/04/12 00:49:02;;;;;;;18.30;10.60;;;;;;;;;;748049;179;919083;-58
2023/04/12 00:51:32;;;;;;;21.37;10.87;;;;;;;;;;751262;182;920115;-58
2023/04/12 00:53:54;;;;;;;16.47;10.77;;;;;;;;;;760999;183;880426;-58
2023/04/12 00:56:22;;;;;;;16.00;10.50;;;;;;;;;;764007;182;915643;-58
2023/04/12 00:58:45;;;;;;;18.98;12.50;;;;;;;;;;759674;182;912166;-57
2023/04/12 01:01:12;;;;;;;17.17;11.27;;;;;;;;;;763465;182;914463;-58
2023/04/12 01:03:41;;;;;;;18.23;11.30;;;;;;;;;;755582;183;968579;-58
2023/04/12 01:06:08;;;;;;;15.93;10.60;;;;;;;;;;758558;182;900774;-57
2023/04/12 01:08:54;;;;;;;22.90;12.13;;;;;;;;;;754260;183;913895;-57
2023/04/12 01:11:22;;;;;;;14.50;11.83;;;;;;;;;;765336;180;921137;-59
2023/04/12 01:13:48;;;;;;;17.00;10.90;;;;;;;;;;769449;181;917769;-58
2023/04/12 01:16:27;;;;;;;17.07;11.93;;;;;;;;;;762985;182;919347;-58
2023/04/12 01:18:56;;;;;;;19.40;12.50;;;;;;;;;;772612;182;918685;-58
2023/04/12 01:21:19;;;;;;;16.30;11.50;;;;;;;;;;765822;182;920302;-59
2023/04/12 01:23:47;;;;;;;19.55;13.13;;;;;;;;;;764157;182;921199;-59
2023/04/12 01:26:31;;;;;;;18.20;13.57;;;;;;;;;;767274;182;816559;-58
2023/04/12 01:28:53;;;;;;;19.73;13.80;;;;;;;;;;762607;182;920159;-58
2023/04/12 01:31:19;;;;;;;20.53;13.87;;;;;;;;;;754148;183;918853;-58
2023/04/12 01:33:45;;;;;;;23.30;16.20;;;;;;;;;;763032;181;919322;-59
2023/04/12 01:36:11;;;;;;;23.83;14.87;;;;;;;;;;769024;182;917415;-59
2023/04/12 01:38:37;;;;;;;21.27;15.23;;;;;;;;;;768477;181;919867;-59
2023/04/12 01:41:03;;;;;;;29.00;15.73;;;;;;;;;;754542;183;919491;-58
2023/04/12 01:43:29;;;;;;;19.67;14.63;;;;;;;;;;763272;181;816604;-59
2023/04/12 01:45:55;;;;;;;19.50;14.60;;;;;;;;;;770550;182;918571;-58
2023/04/12 01:48:21;;;;;;;18.60;14.67;;;;;;;;;;764859;182;919972;-58
2023/04/12 01:50:49;;;;;;;21.93;14.73;;;;;;;;;;764155;182;918290;-58
2023/04/12 01:53:17;;;;;;;26.93;14.70;;;;;;;;;;762499;182;919870;-58
2023/04/12 01:55:44;;;;;;;16.10;12.13;;;;;;;;;;763723;182;833372;-59
2023/04/12 01:58:10;;;;;;;22.40;15.63;;;;;;;;;;767088;182;817413;-59
2023/04/12 02:00:35;;;;;;;22.27;16.10;;;;;;;;;;766916;182;917375;-59
2023/04/12 02:03:01;;;;;;;21.80;14.00;;;;;;;;;;768820;182;919592;-59
2023/04/12 02:05:27;;;;;;;29.07;14.37;;;;;;;;;;758705;182;917628;-59
2023/04/12 02:07:52;;;;;;;22.53;14.23;;;;;;;;;;766386;181;918643;-59
2023/04/12 02:10:24;;;;;;;28.60;16.03;;;;;;;;;;773075;181;919200;-59
2023/04/12 02:12:50;;;;;;;18.13;12.67;;;;;;;;;;762388;182;920737;-60
2023/04/12 02:15:17;;;;;;;22.83;14.00;;;;;;;;;;761748;182;882905;-59
2023/04/12 02:17:42;;;;;;;21.13;13.37;;;;;;;;;;762212;182;919337;-60
2023/04/12 02:20:09;;;;;;;19.37;14.00;;;;;;;;;;760509;184;821775;-59
2023/04/12 02:22:34;;;;;;;21.20;11.73;;;;;;;;;;765609;182;850828;-59
2023/04/12 02:25:01;;;;;;;22.53;13.20;;;;;;;;;;765855;182;919167;-59
2023/04/12 02:27:26;;;;;;;19.77;13.00;;;;;;;;;;763269;182;917557;-59
2023/04/12 02:29:52;;;;;;;18.63;12.50;;;;;;;;;;759569;182;917357;-59
2023/04/12 02:32:18;;;;;;;20.15;13.73;;;;;;;;;;762409;182;915055;-59
2023/04/12 02:34:44;;;;;;;19.50;13.83;;;;;;;;;;768909;181;914835;-58
2023/04/12 02:37:12;;;;;;;17.10;11.37;;;;;;;;;;761276;182;926050;-58
2023/04/12 02:39:36;;;;;;;20.60;12.70;;;;;;;;;;762129;182;918119;-59
2023/04/12 02:42:01;;;;;;;21.37;13.20;;;;;;;;;;760166;184;917039;-59
2023/04/12 02:44:28;;;;;;;23.23;14.20;;;;;;;;;;762678;182;919279;-58
2023/04/12 02:46:54;;;;;;;20.43;14.13;;;;;;;;;;760178;182;915559;-59
2023/04/12 02:49:20;;;;;;;24.73;12.27;;;;;;;;;;766038;182;919583;-58
2023/04/12 02:51:45;;;;;;;44.37;15.23;;;;;;;;;;767084;182;919826;-59
2023/04/12 02:54:11;;;;;;;53.40;16.57;;;;;;;;;;758250;182;918579;-58
2023/04/12 02:56:37;;;;;;;94.97;16.62;;;;;;;;;;760172;182;919312;-59
2023/04/12 02:59:04;;;;;;;83.77;19.03;;;;;;;;;;765755;182;919363;-59
2023/04/12 03:01:30;;;;;;;60.97;16.35;;;;;;;;;;757862;182;918791;-60
2023/04/12 03:03:55;;;;;;;81.50;16.97;;;;;;;;;;752301;182;936980;-58
2023/04/12 03:06:21;;;;;;;71.00;17.90;;;;;;;;;;759791;182;919914;-58
2023/04/12 03:08:47;;;;;;;103.87;22.27;;;;;;;;;;767559;182;919518;-61
2023/04/12 03:11:13;;;;;;;52.63;16.37;;;;;;;;;;757981;181;1019338;-59
2023/04/12 03:13:39;;;;;;;51.77;20.43;;;;;;;;;;761920;182;918357;-59
2023/04/12 03:16:05;;;;;;;205.93;25.30;;;;;;;;;;768945;179;916637;-59
2023/04/12 03:18:31;;;;;;;102.90;19.90;;;;;;;;;;762945;180;830299;-59
2023/04/12 03:20:56;;;;;;;282.37;32.92;;;;;;;;;;761242;181;918136;-59
2023/04/12 03:23:22;;;;;;;206.70;26.27;;;;;;;;;;772937;181;920971;-59
2023/04/12 03:25:48;;;;;;;23.92;13.45;;;;;;;;;;766685;181;823444;-60
2023/04/12 03:28:14;;;;;;;105.97;18.27;;;;;;;;;;767501;181;813442;-60
2023/04/12 03:30:40;;;;;;;105.63;17.90;;;;;;;;;;764562;182;915461;-59
2023/04/12 03:33:06;;;;;;;170.83;21.83;;;;;;;;;;759005;183;916288;-59
2023/04/12 03:35:32;;;;;;;200.33;24.60;;;;;;;;;;755685;181;1123253;-59
2023/04/12 03:37:57;;;;;;;188.03;21.13;;;;;;;;;;765123;182;915085;-59
2023/04/12 03:40:23;;;;;;;197.53;19.57;;;;;;;;;;771816;182;916915;-59
2023/04/12 03:42:49;;;;;;;162.40;21.70;;;;;;;;;;759026;182;888275;-59
2023/04/12 03:45:15;;;;;;;199.63;21.30;;;;;;;;;;763689;182;921343;-60
2023/04/12 03:47:41;;;;;;;93.03;17.50;;;;;;;;;;772290;182;916278;-63
2023/04/12 03:50:09;;;;;;;234.50;23.13;;;;;;;;;;759712;182;916262;-59
2023/04/12 03:52:33;;;;;;;362.90;29.67;;;;;;;;;;759023;182;1021388;-59
2023/04/12 03:54:59;;;;;;;250.37;24.07;;;;;;;;;;760768;182;937259;-60
2023/04/12 03:57:25;;;;;;;93.80;19.50;;;;;;;;;;768839;182;918399;-59
2023/04/12 03:59:51;;;;;;;179.47;22.43;;;;;;;;;;763011;181;921389;-59
2023/04/12 04:02:16;;;;;;;59.73;18.10;;;;;;;;;;762366;182;917678;-59
2023/04/12 04:04:42;;;;;;;74.70;15.33;;;;;;;;;;766372;182;923917;-59
2023/04/12 04:07:08;;;;;;;148.47;21.80;;;;;;;;;;761908;182;918522;-59
2023/04/12 04:09:34;;;;;;;95.60;18.07;;;;;;;;;;759375;182;918896;-59
2023/04/12 04:12:00;;;;;;;120.07;20.57;;;;;;;;;;768464;182;907042;-59
2023/04/12 04:14:26;;;;;;;94.70;19.70;;;;;;;;;;746231;184;919086;-59
2023/04/12 04:16:52;;;;;;;42.30;17.80;;;;;;;;;;756676;182;918561;-59
2023/04/12 04:19:17;;;;;;;48.87;19.03;;;;;;;;;;767623;182;866203;-59
2023/04/12 04:21:44;;;;;;;44.83;17.27;;;;;;;;;;760985;181;922590;-59
2023/04/12 04:24:10;;;;;;;54.28;18.17;;;;;;;;;;761994;182;903044;-59
2023/04/12 04:26:37;;;;;;;71.53;19.83;;;;;;;;;;762222;182;919043;-59
2023/04/12 04:29:02;;;;;;;44.80;16.30;;;;;;;;;;769225;183;918774;-59
2023/04/12 04:31:27;;;;;;;111.33;18.87;;;;;;;;;;766571;181;913066;-59
2023/04/12 04:33:52;;;;;;;174.27;20.97;;;;;;;;;;766134;181;920384;-59
2023/04/12 04:36:18;;;;;;;286.90;26.37;;;;;;;;;;770434;181;919383;-59
2023/04/12 04:38:45;;;;;;;279.40;26.37;;;;;;;;;;767667;181;918427;-60
2023/04/12 04:41:11;;;;;;;214.27;26.37;;;;;;;;;;763670;182;894577;-60
2023/04/12 04:43:38;;;;;;;192.20;25.40;;;;;;;;;;769316;182;817219;-63
2023/04/12 04:46:02;;;;;;;37.70;17.27;;;;;;;;;;757277;182;939882;-59
2023/04/12 04:48:28;;;;;;;60.43;17.47;;;;;;;;;;752604;181;918708;-59
2023/04/12 04:50:53;;;;;;;79.83;24.13;;;;;;;;;;765052;180;633475;-60
2023/04/12 04:53:20;;;;;;;199.37;44.40;;;;;;;;;;768541;182;934712;-59
2023/04/12 04:55:46;;;;;;;59.23;22.20;;;;;;;;;;764804;181;1012095;-59
2023/04/12 04:58:11;;;;;;;68.77;23.20;;;;;;;;;;763274;179;918240;-60
2023/04/12 05:00:37;;;;;;;72.37;18.23;;;;;;;;;;756805;184;633901;-59
2023/04/12 05:03:03;;;;;;;32.37;12.20;;;;;;;;;;766328;181;633815;-60
2023/04/12 05:05:29;;;;;;;100.90;15.50;;;;;;;;;;766644;182;634416;-59
2023/04/12 05:07:55;;;;;;;38.50;13.00;;;;;;;;;;769131;182;619021;-59
2023/04/12 05:10:20;;;;;;;45.20;12.13;;;;;;;;;;761762;182;918354;-59
2023/04/12 05:12:47;;;;;;;56.33;14.97;;;;;;;;;;760323;182;907673;-59
2023/04/12 05:15:12;;;;;;;102.32;17.05;;;;;;;;;;762633;182;1017330;-59
2023/04/12 05:17:38;;;;;;;42.63;19.00;;;;;;;;;;769810;182;918529;-59
2023/04/12 05:20:06;;;;;;;43.30;10.37;;;;;;;;;;760927;182;919507;-58
2023/04/12 05:22:31;;;;;;;49.93;12.33;;;;;;;;;;764298;182;918897;-58
2023/04/12 05:24:57;;;;;;;58.43;14.73;;;;;;;;;;764373;182;916993;-58
2023/04/12 05:27:22;;;;;;;61.50;16.20;;;;;;;;;;761456;182;919385;-58
2023/04/12 05:29:48;;;;;;;134.07;21.87;;;;;;;;;;761514;181;920107;-58
2023/04/12 05:32:14;;;;;;;78.53;15.47;;;;;;;;;;769463;181;919090;-58
2023/04/12 05:34:41;;;;;;;84.15;18.00;;;;;;;;;;752045;184;818360;-58
2023/04/12 05:37:06;;;;;;;33.30;11.50;;;;;;;;;;770362;182;631267;-58
2023/04/12 05:39:32;;;;;;;12.97;8.00;;;;;;;;;;768931;181;891359;-58
2023/04/12 05:41:58;;;;;;;33.27;14.00;;;;;;;;;;761308;182;863594;-58
2023/04/12 05:44:23;;;;;;;19.30;10.70;;;;;;;;;;754762;184;917912;-58
2023/04/12 05:46:49;;;;;;;56.20;12.30;;;;;;;;;;763322;182;815023;-59
2023/04/12 05:49:15;;;;;;;47.30;12.70;;;;;;;;;;771890;182;919207;-58
2023/04/12 05:51:41;;;;;;;74.77;13.33;;;;;;;;;;765783;181;919547;-58
2023/04/12 05:54:07;;;;;;;13.00;9.20;;;;;;;;;;762870;183;816976;-59
2023/04/12 05:56:33;;;;;;;11.03;8.87;;;;;;;;;;764852;184;853580;-59
2023/04/12 05:59:00;;;;;;;34.13;9.07;;;;;;;;;;763630;183;845096;-59
2023/04/12 06:01:29;;;;;;;18.60;8.17;;;;;;;;;;752990;184;942890;-58
2023/04/12 06:03:51;;;;;;;46.13;10.67;;;;;;;;;;756607;185;918076;-59
2023/04/12 06:06:17;;;;;;;30.47;9.90;;;;;;;;;;754587;183;940661;-59
2023/04/12 06:08:42;;;;;;;27.13;9.00;;;;;;;;;;760509;183;913027;-59
2023/04/12 06:11:10;;;;;;;23.47;9.60;;;;;;;;;;751956;185;918355;-59
2023/04/12 06:13:34;;;;;;;19.50;10.03;;;;;;;;;;757582;184;933829;-59
2023/04/12 06:16:00;;;;;;;19.53;9.00;;;;;;;;;;739855;184;918530;-59
2023/04/12 06:18:26;;;;;;;13.20;9.30;;;;;;;;;;752317;184;917986;-59
2023/04/12 06:20:52;;;;;;;12.23;8.93;;;;;;;;;;758706;182;918387;-58
2023/04/12 06:23:18;;;;;;;14.10;10.30;;;;;;;;;;761652;184;920009;-59
2023/04/12 06:25:43;;;;;;;12.70;9.57;;;;;;;;;;762557;182;919374;-59
2023/04/12 06:28:09;;;;;;;16.20;9.10;;;;;;;;;;767121;184;919389;-58
2023/04/12 06:30:36;;;;;;;14.03;9.50;;;;;;;;;;760168;182;920678;-59
2023/04/12 06:33:01;;;;;;;12.50;9.60;;;;;;;;;;765533;182;916691;-59
2023/04/12 06:35:27;;;;;;;12.50;9.00;;;;;;;;;;765236;182;1021914;-58
2023/04/12 06:37:53;;;;;;;14.13;10.00;;;;;;;;;;770152;181;884596;-59
2023/04/12 06:40:18;;;;;;;12.00;9.63;;;;;;;;;;765619;181;917061;-59
2023/04/12 06:42:44;;;;;;;15.13;9.70;;;;;;;;;;763732;179;889790;-58
2023/04/12 06:45:10;;;;;;;15.70;11.20;;;;;;;;;;767476;182;921196;-59
2023/04/12 06:47:36;;;;;;;14.67;10.77;;;;;;;;;;758063;183;929954;-59
2023/04/12 06:50:02;;;;;;;15.48;9.93;;;;;;;;;;758549;182;915323;-59
2023/04/12 06:52:28;;;;;;;14.50;10.53;;;;;;;;;;762099;183;920442;-59
2023/04/12 06:54:54;;;;;;;15.07;9.60;;;;;;;;;;767283;180;918989;-59
2023/04/12 06:57:20;;;;;;;14.27;10.47;;;;;;;;;;763027;183;915590;-59
2023/04/12 06:59:45;;;;;;;16.98;10.30;;;;;;;;;;764038;182;919915;-59
2023/04/12 07:02:11;;;;;;;11.33;9.20;;;;;;;;;;770037;182;919501;-59
2023/04/12 07:04:37;;;;;;;15.77;10.23;;;;;;;;;;769744;182;887109;-59
2023/04/12 07:07:03;;;;;;;14.65;10.68;;;;;;;;;;764270;182;923810;-59
2023/04/12 07:09:30;;;;;;;11.80;9.13;;;;;;;;;;772149;182;940000;-59
2023/04/12 07:11:55;;;;;;;13.52;10.23;;;;;;;;;;768995;182;936289;-59
2023/04/12 07:14:21;;;;;;;15.93;10.43;;;;;;;;;;767922;182;916597;-57
2023/04/12 07:16:47;;;;;;;14.00;9.87;;;;;;;;;;766706;182;942444;-58
2023/04/12 07:19:13;;;;;;;14.50;10.50;;;;;;;;;;755395;182;919677;-57
2023/04/12 07:21:39;;;;;;;12.70;8.90;;;;;;;;;;754774;184;922023;-57
2023/04/12 07:24:05;;;;;;;16.63;11.07;;;;;;;;;;757317;184;924000;-57
2023/04/12 07:26:31;;;;;;;12.87;9.70;;;;;;;;;;759539;183;917348;-57
2023/04/12 07:28:57;;;;;;;13.53;8.47;;;;;;;;;;763790;180;918789;-57
2023/04/12 07:31:23;;;;;;;13.27;10.00;;;;;;;;;;762576;182;919011;-58
2023/04/12 07:33:49;;;;;;;14.03;9.70;;;;;;;;;;771609;179;918602;-57
2023/04/12 07:36:15;;;;;;;12.80;9.73;;;;;;;;;;760648;182;920853;-57
2023/04/12 07:38:40;;;;;;;11.48;9.07;;;;;;;;;;749881;182;1020648;-57
2023/04/12 07:41:06;;;;;;;12.50;9.50;;;;;;;;;;754028;185;917640;-57
2023/04/12 07:43:32;;;;;;;12.97;9.40;;;;;;;;;;764945;182;876646;-57
2023/04/12 07:45:58;;;;;;;10.07;8.37;;;;;;;;;;762925;182;912883;-57
2023/04/12 07:48:24;;;;;;;13.33;8.60;;;;;;;;;;767546;182;915785;-57
2023/04/12 07:50:50;;;;;;;17.03;7.83;;;;;;;;;;759351;182;915270;-57
2023/04/12 07:53:17;;;;;;;11.47;8.13;;;;;;;;;;763033;182;852634;-58
2023/04/12 07:55:42;;;;;;;12.07;7.47;;;;;;;;;;762578;183;917722;-58
2023/04/12 07:58:08;;;;;;;10.57;8.07;;;;;;;;;;766806;183;920669;-57
2023/04/12 08:00:34;;;;;;;8.80;7.90;;;;;;;;;;761825;181;918955;-58
2023/04/12 08:03:00;;;;;;;10.80;7.90;;;;;;;;;;770684;181;819453;-58
2023/04/12 08:05:26;;;;;;;12.60;7.10;;;;;;;;;;772517;181;818912;-58
2023/04/12 08:07:51;;;;;;;12.27;7.33;;;;;;;;;;762934;182;910597;-57
2023/04/12 08:10:17;;;;;;;12.93;7.50;;;;;;;;;;763627;182;921040;-58
2023/04/12 08:12:43;;;;;;;9.57;6.90;;;;;;;;;;772501;182;921340;-57
2023/04/12 08:15:09;;;;;;;10.27;6.87;;;;;;;;;;768204;181;818778;-57
2023/04/12 08:17:35;;;;;;;8.90;6.93;;;;;;;;;;760333;182;919762;-57
2023/04/12 08:20:03;;;;;;;12.57;6.40;;;;;;;;;;760051;184;919761;-57
2023/04/12 08:22:27;;;;;;;8.30;6.70;;;;;;;;;;762292;182;815935;-57
2023/04/12 08:24:53;;;;;;;8.90;6.40;;;;;;;;;;756014;183;917495;-58
2023/04/12 08:27:19;;;;;;;11.10;6.70;;;;;;;;;;758826;182;918468;-57
2023/04/12 08:29:44;;;;;;;9.80;5.70;;;;;;;;;;761037;184;916754;-58
2023/04/12 08:32:11;;;;;;;8.80;6.00;;;;;;;;;;756567;183;916761;-58
2023/04/12 08:34:36;;;;;;;9.45;5.95;;;;;;;;;;762283;182;936366;-58
2023/04/12 08:37:02;;;;;;;7.30;5.93;;;;;;;;;;757265;183;915552;-57
2023/04/12 08:39:28;;;;;;;8.00;6.43;;;;;;;;;;750648;185;916790;-58
2023/04/12 08:41:54;;;;;;;10.83;6.10;;;;;;;;;;756517;182;916121;-58
2023/04/12 08:44:20;;;;;;;9.30;6.63;;;;;;;;;;756669;182;920346;-58
2023/04/12 08:46:45;;;;;;;7.97;6.03;;;;;;;;;;757795;183;919686;-58
2023/04/12 08:49:11;;;;;;;8.67;5.90;;;;;;;;;;766577;182;919932;-58
2023/04/12 08:51:37;;;;;;;7.57;5.00;;;;;;;;;;762559;181;920440;-57
2023/04/12 08:54:03;;;;;;;7.20;5.00;;;;;;;;;;767278;179;917471;-58
2023/04/12 08:56:29;;;;;;;6.30;4.28;;;;;;;;;;754833;183;921683;-57
2023/04/12 08:58:55;;;;;;;8.60;4.47;;;;;;;;;;759123;182;920954;-57
2023/04/12 09:01:20;;;;;;;7.67;4.43;;;;;;;;;;767837;181;896768;-58
2023/04/12 09:03:46;;;;;;;6.03;3.85;;;;;;;;;;762183;182;920489;-58
2023/04/12 09:06:12;;;;;;;5.50;3.80;;;;;;;;;;763553;181;920053;-57
2023/04/12 09:08:58;;;;;;;10.60;5.10;;;;;;;;;;763014;182;919694;-58
2023/04/12 09:11:23;;;;;;;6.90;3.70;;;;;;;;;;751898;183;915646;-58
2023/04/12 09:13:48;;;;;;;7.00;4.30;;;;;;;;;;745135;188;818302;-59
2023/04/12 09:16:14;;;;;;;7.23;3.60;;;;;;;;;;742165;187;919246;-59
2023/04/12 09:18:46;;;;;;;5.50;3.77;;;;;;;;;;755235;184;919042;-59
2023/04/12 09:21:12;;;;;;;7.53;3.40;;;;;;;;;;756444;186;919447;-59
2023/04/12 09:23:38;;;;;;;5.00;2.87;;;;;;;;;;761009;183;819439;-59
2023/04/12 09:26:04;;;;;;;6.57;3.50;;;;;;;;;;766931;182;818523;-59
2023/04/12 09:28:30;;;;;;;5.77;3.83;;;;;;;;;;771735;181;919332;-58
2023/04/12 09:30:55;;;;;;;4.00;3.37;;;;;;;;;;775396;182;817004;-59
2023/04/12 09:33:21;;;;;;;4.57;2.90;;;;;;;;;;765624;181;919114;-59
2023/04/12 09:35:47;;;;;;;7.70;4.37;;;;;;;;;;758446;183;827179;-59
2023/04/12 09:38:13;;;;;;;6.73;3.77;;;;;;;;;;765640;182;939170;-58
2023/04/12 09:40:39;;;;;;;8.10;4.72;;;;;;;;;;765735;182;919969;-59
2023/04/12 09:43:05;;;;;;;8.10;3.30;;;;;;;;;;760628;182;815063;-59
2023/04/12 09:45:31;;;;;;;7.20;3.90;;;;;;;;;;759755;182;867584;-59
2023/04/12 09:47:56;;;;;;;6.28;4.35;;;;;;;;;;765445;182;864861;-59
2023/04/12 09:50:23;;;;;;;5.70;3.83;;;;;;;;;;761233;182;1015730;-59
2023/04/12 09:52:49;;;;;;;7.30;3.92;;;;;;;;;;761091;181;917407;-59
2023/04/12 09:55:15;;;;;;;4.77;2.87;;;;;;;;;;757027;184;893448;-59
2023/04/12 09:57:41;;;;;;;7.60;3.20;;;;;;;;;;763685;182;937821;-59
2023/04/12 10:00:22;;;;;;;8.77;3.62;;;;;;;;;;763417;182;918031;-59
2023/04/12 10:02:48;;;;;;;7.97;3.60;;;;;;;;;;757242;184;918910;-59
2023/04/12 10:05:14;;;;;;;5.73;3.47;;;;;;;;;;755468;184;919333;-59
2023/04/12 10:07:41;;;;;;;6.70;3.20;;;;;;;;;;760368;182;919627;-59
2023/04/12 10:10:06;;;;;;;4.73;2.83;;;;;;;;;;761728;182;923901;-59
2023/04/12 10:12:32;;;;;;;3.90;2.50;;;;;;;;;;767224;183;919421;-59
2023/04/12 10:14:57;;;;;;;7.43;4.80;;;;;;;;;;763225;182;817687;-58
2023/04/12 10:17:23;;;;;;;5.37;2.80;;;;;;;;;;761674;183;920374;-59
2023/04/12 10:19:49;;;;;;;7.60;3.20;;;;;;;;;;765609;182;921175;-60
2023/04/12 10:22:15;;;;;;;4.77;2.90;;;;;;;;;;741211;183;921374;-59
2023/04/12 10:24:41;;;;;;;5.57;3.17;;;;;;;;;;727556;189;918314;-59
2023/04/12 10:27:07;;;;;;;6.77;3.23;;;;;;;;;;728053;188;822648;-58
2023/04/12 10:29:35;;;;;;;13.00;4.67;;;;;;;;;;729919;187;823020;-59
2023/04/12 10:31:58;;;;;;;5.20;3.17;;;;;;;;;;736387;187;918086;-59
2023/04/12 10:34:27;;;;;;;5.50;3.55;;;;;;;;;;755925;183;917357;-59
2023/04/12 10:36:53;;;;;;;5.47;3.00;;;;;;;;;;755860;183;814922;-59
2023/04/12 10:39:19;;;;;;;5.87;3.20;;;;;;;;;;751568;185;923160;-59
2023/04/12 10:41:51;;;;;;;5.50;3.57;;;;;;;;;;752101;183;919500;-59
2023/04/12 10:44:23;;;;;;;5.17;3.10;;;;;;;;;;755369;185;920439;-59
2023/04/12 10:46:49;;;;;;;5.37;3.20;;;;;;;;;;772414;182;819404;-60
2023/04/12 10:49:15;;;;;;;6.57;2.90;;;;;;;;;;768824;181;919257;-58
2023/04/12 10:51:46;;;;;;;6.53;3.53;;;;;;;;;;767487;181;923716;-59
2023/04/12 10:54:30;;;;;;;3.60;2.70;;;;;;;;;;751705;183;859191;-59
2023/04/12 10:56:56;;;;;;;7.27;3.00;;;;;;;;;;763636;182;920295;-59
2023/04/12 10:59:21;;;;;;;5.73;3.40;;;;;;;;;;767505;183;922214;-59
2023/04/12 11:01:53;;;;;;;5.53;3.20;;;;;;;;;;762253;182;915921;-58
2023/04/12 11:04:19;;;;;;;9.20;3.43;;;;;;;;;;755614;182;895399;-59
2023/04/12 11:06:48;;;;;;;7.13;2.87;;;;;;;;;;749919;184;916368;-59
2023/04/12 11:09:16;;;;;;;3.67;2.50;;;;;;;;;;766681;182;847749;-59
2023/04/12 11:11:42;;;;;;;3.77;2.70;;;;;;;;;;761382;180;915644;-59
2023/04/12 11:14:07;;;;;;;4.18;3.20;;;;;;;;;;748572;184;934127;-59
2023/04/12 11:16:33;;;;;;;9.57;3.23;;;;;;;;;;755879;185;918239;-59
2023/04/12 11:18:59;;;;;;;6.00;2.97;;;;;;;;;;751175;183;918736;-59
2023/04/12 11:21:25;;;;;;;5.00;3.27;;;;;;;;;;759562;182;910194;-59
2023/04/12 11:23:52;;;;;;;5.17;2.30;;;;;;;;;;745910;187;920468;-59
2023/04/12 11:26:19;;;;;;;4.07;2.33;;;;;;;;;;766704;181;923144;-58
2023/04/12 11:28:46;;;;;;;6.50;3.27;;;;;;;;;;765051;181;919525;-59
2023/04/12 11:31:10;;;;;;;5.13;3.00;;;;;;;;;;761773;181;919405;-59
2023/04/12 11:33:36;;;;;;;5.50;3.17;;;;;;;;;;773835;182;922462;-58
2023/04/12 11:36:02;;;;;;;4.40;2.67;;;;;;;;;;767774;181;921153;-59
2023/04/12 11:38:28;;;;;;;5.47;3.17;;;;;;;;;;770228;180;920057;-58
2023/04/12 11:40:54;;;;;;;4.53;2.77;;;;;;;;;;772643;181;864871;-59
2023/04/12 11:43:19;;;;;;;4.90;3.30;;;;;;;;;;766568;182;915083;-59
2023/04/12 11:45:46;;;;;;;4.27;3.03;;;;;;;;;;764454;182;919187;-59
2023/04/12 11:48:11;;;;;;;4.97;3.20;;;;;;;;;;748401;186;1019198;-59
2023/04/12 11:50:39;;;;;;;6.07;3.20;;;;;;;;;;751056;186;919465;-59
2023/04/12 11:53:08;;;;;;;4.33;3.00;;;;;;;;;;765925;180;918264;-58
2023/04/12 11:55:34;;;;;;;5.70;3.23;;;;;;;;;;757500;181;914347;-59
2023/04/12 11:58:00;;;;;;;4.33;3.30;;;;;;;;;;772100;181;918373;-59
2023/04/12 12:00:26;;;;;;;6.47;3.60;;;;;;;;;;766222;182;919346;-59
2023/04/12 12:02:51;;;;;;;6.10;3.53;;;;;;;;;;766735;182;919801;-58
2023/04/12 12:05:17;;;;;;;4.90;3.20;;;;;;;;;;762975;182;919213;-59
2023/04/12 12:07:43;;;;;;;4.50;2.93;;;;;;;;;;762263;183;920685;-59
2023/04/12 12:10:09;;;;;;;12.03;4.00;;;;;;;;;;756239;182;1124020;-58
2023/04/12 12:12:35;;;;;;;6.55;4.05;;;;;;;;;;758954;181;919085;-60
2023/04/12 12:15:01;;;;;;;5.53;3.70;;;;;;;;;;756156;184;806340;-59
2023/04/12 12:17:26;;;;;;;5.20;3.20;;;;;;;;;;761353;181;920413;-59
2023/04/12 12:19:52;;;;;;;4.90;3.17;;;;;;;;;;752652;182;1129216;-58
2023/04/12 12:22:18;;;;;;;8.60;3.17;;;;;;;;;;769630;181;914763;-59
2023/04/12 12:24:53;;;;;;;4.10;2.93;;;;;;;;;;756837;182;921998;-59
2023/04/12 12:27:19;;;;;;;4.07;2.63;;;;;;;;;;757601;182;913786;-59
2023/04/12 12:29:46;;;;;;;6.70;2.80;;;;;;;;;;763568;182;919974;-59
2023/04/12 12:32:12;;;;;;;4.10;2.87;;;;;;;;;;769673;182;924153;-59
2023/04/12 12:34:37;;;;;;;5.00;2.53;;;;;;;;;;763276;182;850064;-60
2023/04/12 12:37:03;;;;;;;4.60;2.57;;;;;;;;;;763720;182;922234;-59
2023/04/12 12:39:29;;;;;;;4.83;2.73;;;;;;;;;;761736;184;714531;-59
2023/04/12 12:41:55;;;;;;;3.50;2.60;;;;;;;;;;757565;182;919684;-59
2023/04/12 12:44:21;;;;;;;4.37;2.90;;;;;;;;;;768049;181;913533;-59
2023/04/12 12:46:47;;;;;;;5.10;3.10;;;;;;;;;;755826;182;917293;-60
2023/04/12 12:49:13;;;;;;;4.67;2.60;;;;;;;;;;763792;182;873458;-59
2023/04/12 12:51:39;;;;;;;5.13;3.87;;;;;;;;;;762396;182;1270922;-58
2023/04/12 12:54:05;;;;;;;5.50;3.40;;;;;;;;;;758937;184;917305;-59
2023/04/12 12:56:30;;;;;;;5.90;3.23;;;;;;;;;;762246;183;926036;-59
2023/04/12 12:58:56;;;;;;;4.82;3.10;;;;;;;;;;761740;182;819132;-59
2023/04/12 13:01:22;;;;;;;5.30;3.30;;;;;;;;;;765125;181;823245;-60
2023/04/12 13:03:48;;;;;;;8.50;3.10;;;;;;;;;;772077;182;817013;-59
2023/04/12 13:06:15;;;;;;;4.80;3.13;;;;;;;;;;764763;182;918691;-59
2023/04/12 13:08:41;;;;;;;5.03;2.90;;;;;;;;;;763614;182;918894;-59
2023/04/12 13:11:07;;;;;;;6.43;3.03;;;;;;;;;;760308;182;938618;-59
2023/04/12 13:13:32;;;;;;;4.07;2.87;;;;;;;;;;770916;182;816905;-59
2023/04/12 13:16:00;;;;;;;5.30;3.33;;;;;;;;;;760750;182;921703;-59
2023/04/12 13:18:25;;;;;;;5.50;3.00;;;;;;;;;;765769;182;864495;-59
2023/04/12 13:20:53;;;;;;;6.27;3.67;;;;;;;;;;769785;182;810032;-59
2023/04/12 13:23:19;;;;;;;4.47;2.87;;;;;;;;;;762575;182;922774;-59
2023/04/12 13:25:45;;;;;;;4.90;2.90;;;;;;;;;;758515;182;917319;-59
2023/04/12 13:28:11;;;;;;;4.00;3.00;;;;;;;;;;761839;182;885755;-59
2023/04/12 13:30:37;;;;;;;3.93;2.90;;;;;;;;;;765926;181;906697;-59
2023/04/12 13:33:03;;;;;;;4.20;2.53;;;;;;;;;;764831;182;919177;-62
2023/04/12 13:35:29;;;;;;;4.87;2.80;;;;;;;;;;759802;183;847576;-60
2023/04/12 13:37:55;;;;;;;4.33;3.50;;;;;;;;;;763441;182;864802;-59
2023/04/12 13:40:20;;;;;;;4.37;2.63;;;;;;;;;;762873;182;922008;-58
2023/04/12 13:42:46;;;;;;;7.03;2.70;;;;;;;;;;760456;182;920334;-58
2023/04/12 13:45:12;;;;;;;5.83;3.30;;;;;;;;;;762797;182;917891;-59
2023/04/12 13:47:38;;;;;;;5.03;2.63;;;;;;;;;;762099;182;918845;-58
2023/04/12 13:50:04;;;;;;;4.45;2.95;;;;;;;;;;761434;182;918536;-58
2023/04/12 13:52:31;;;;;;;5.77;2.70;;;;;;;;;;765640;182;919509;-59
2023/04/12 13:54:58;;;;;;;5.77;3.37;;;;;;;;;;761123;182;921124;-58
2023/04/12 13:57:22;;;;;;;5.97;3.17;;;;;;;;;;754404;181;919427;-58
2023/04/12 13:59:48;;;;;;;7.00;3.33;;;;;;;;;;749228;184;919626;-58
2023/04/12 14:02:14;;;;;;;6.37;3.80;;;;;;;;;;766847;181;1642517;-58
2023/04/12 14:04:40;;;;;;;5.80;3.20;;;;;;;;;;768361;181;922363;-58
2023/04/12 14:07:06;;;;;;;4.03;2.70;;;;;;;;;;751052;186;920923;-58
2023/04/12 14:09:32;;;;;;;7.53;3.50;;;;;;;;;;768653;182;818619;-58